Huvudsida
METAR-TAF:

METAR-TAF

Flygplatser :

Anapa, Ryssland

latitud: 44-54N, longitud: 037-19E, höjd: 53 m

Aktuellt väderrapport

Denna rapport gjordes för 33 minuter sedan, klockan 20:30 UTC
Vind 10 kt från sydost
Temperatur 12°C
Fuktighet 54%
Tryck 1010 hPa
Sikt 10 km eller mer

METAR: URKA 262030Z AUTO 14005MPS 9999 // NCD 12/03 Q1010 RMK QFE754/1005

Tid: 01:03 (21:03 UTC)

Väderprognos

Denna rapport gjordes för 4 timmar och 8 minuter sedan, klockan 16:55 UTC
Prognos gäller från 26 kl. 18 UTC till 27 kl. 18 UTC
Vind 14 kt från syd/sydost i byarna ända upp till 27 kt
Sikt 10 km eller mer
Spridda moln på en höjd av 3000 ft
Temporärt
från 26 kl. 18 UTC till 27 kl. 06 UTC
Vind 10 kt från syd/sydväst i byarna ända upp till 23 kt
Temporärt
från 27 kl. 06 UTC till 27 kl. 18 UTC
Vind 19 kt från syd i byarna ända upp till 33 kt

TAF: URKA 261655Z 2618/2718 16007G14MPS 9999 SCT030 TEMPO 2618/2706 20005G12MPS TEMPO 2706/2718 17010G17MPS

Aktuella väderrapporter och prognoser från 4000 flygplatser (METAR- och TAF-rapporter).

De tillgängliga stationerna syns som gula och röda prickar på kartan.

För musen över prickarna för att se namnen på stationerna.

Klicka sedan för att få väderrapporter och prognoser.

För att ändra kartan: Klicka på de gröna knapparna med ett svart kors på för att zooma in; den gröna knappen med ett streck på för att zooma ut; eller på de gröna pilarna för angränsande kartor.


METAR-TAF: